Time;durP1;ratioP1;P1;durP2;ratioP2;P2;SDS_P1;SDS_P2;PMS_P1;PMS_P2;Temp;Humidity;BMP_temperature;BMP_pressure;BME280_temperature;BME280_humidity;BME280_pressure;Samples;Min_cycle;Max_cycle;Signal;HPM_P1;HPM_P2
2023/03/14 00:01:37;;;;;;;15.13;14.77;;;11.40;1.00;;;;;;4921087;29;20515;-79
2023/03/14 00:04:05;;;;;;;15.23;14.83;;;11.50;1.00;;;;;;4919040;29;20461;-78
2023/03/14 00:06:33;;;;;;;15.10;14.80;;;11.40;1.00;;;;;;4921030;29;20472;-79
2023/03/14 00:09:01;;;;;;;15.37;14.97;;;11.20;1.00;;;;;;4921116;29;20465;-79
2023/03/14 00:11:30;;;;;;;15.20;14.80;;;11.30;1.00;;;;;;4923099;29;20492;-78
2023/03/14 00:13:59;;;;;;;15.00;14.60;;;11.40;1.00;;;;;;4920977;29;20546;-78
2023/03/14 00:16:29;;;;;;;15.00;14.60;;;11.40;1.00;;;;;;4923494;29;20472;-79
2023/03/14 00:18:57;;;;;;;14.90;14.60;;;11.40;1.00;;;;;;4921180;29;20484;-81
2023/03/14 00:21:25;;;;;;;15.10;14.80;;;11.50;1.00;;;;;;4919197;29;21037;-79
2023/03/14 00:23:53;;;;;;;15.17;14.77;;;11.60;1.00;;;;;;4923991;29;20609;-78
2023/03/14 00:26:22;;;;;;;15.33;14.93;;;11.40;1.00;;;;;;4920528;29;20461;-79
2023/03/14 00:28:53;;;;;;;15.33;14.93;;;11.40;1.00;;;;;;4920659;29;20575;-77
2023/03/14 00:31:22;;;;;;;15.00;14.70;;;11.40;1.00;;;;;;4921231;29;20468;-75
2023/03/14 00:33:53;;;;;;;15.20;14.80;;;11.50;1.00;;;;;;4923102;29;21119;-79
2023/03/14 00:36:22;;;;;;;15.10;14.80;;;11.50;1.00;;;;;;4920185;29;20465;-77
2023/03/14 00:38:51;;;;;;;15.40;14.90;;;11.50;1.00;;;;;;4916001;29;20475;-78
2023/03/14 00:41:23;;;;;;;14.90;14.50;;;11.50;1.00;;;;;;4919540;29;20507;-79
2023/03/14 00:43:51;;;;;;;14.80;14.50;;;11.50;1.00;;;;;;4921196;29;20449;-77
2023/03/14 00:46:19;;;;;;;14.97;14.63;;;11.40;1.00;;;;;;4922591;29;20989;-78
2023/03/14 00:48:48;;;;;;;15.17;14.67;;;11.30;1.00;;;;;;4920043;29;20982;-78
2023/03/14 00:51:17;;;;;;;15.10;14.70;;;11.40;1.00;;;;;;4917041;29;20477;-78
2023/03/14 00:53:45;;;;;;;15.00;14.70;;;11.50;99.90;;;;;;4917445;29;20464;-75
2023/03/14 00:56:14;;;;;;;15.03;14.70;;;11.50;99.90;;;;;;4920601;29;20453;-78
2023/03/14 00:58:43;;;;;;;14.80;14.50;;;11.40;1.00;;;;;;4914206;29;20456;-75
2023/03/14 01:01:14;;;;;;;15.00;14.70;;;11.40;1.00;;;;;;4919500;29;20492;-79
2023/03/14 01:03:42;;;;;;;14.77;14.40;;;11.40;99.90;;;;;;4923650;29;20487;-79
2023/03/14 01:06:12;;;;;;;14.97;14.67;;;11.40;99.90;;;;;;4922502;29;20480;-78
2023/03/14 01:08:42;;;;;;;15.20;14.80;;;11.30;1.00;;;;;;4922499;29;20458;-76
2023/03/14 01:11:13;;;;;;;14.80;14.40;;;11.40;1.00;;;;;;4921353;29;20479;-77
2023/03/14 01:13:41;;;;;;;15.07;14.77;;;11.30;1.00;;;;;;4920726;29;20461;-79
2023/03/14 01:16:11;;;;;;;14.83;14.43;;;11.20;1.00;;;;;;4919155;29;20533;-80
2023/03/14 01:18:40;;;;;;;15.37;14.97;;;11.30;1.00;;;;;;4922978;29;20449;-77
2023/03/14 01:21:13;;;;;;;14.80;14.40;;;11.30;99.90;;;;;;4919547;29;20490;-80
2023/03/14 01:23:43;;;;;;;14.83;14.47;;;11.30;99.90;;;;;;4919554;29;20456;-81
2023/03/14 01:26:12;;;;;;;14.80;14.50;;;11.30;99.90;;;;;;4919755;29;20488;-80
2023/03/14 01:28:41;;;;;;;14.73;14.43;;;11.30;99.90;;;;;;4920830;29;20490;-78
2023/03/14 01:31:11;;;;;;;14.77;14.47;;;11.30;99.90;;;;;;4914940;29;20470;-79
2023/03/14 01:33:40;;;;;;;14.60;14.30;;;11.20;99.90;;;;;;4920092;29;20478;-79
2023/03/14 01:36:09;;;;;;;14.87;14.50;;;11.30;99.90;;;;;;4915884;29;20487;-81
2023/03/14 01:38:39;;;;;;;14.90;14.60;;;11.30;99.90;;;;;;4914924;29;20843;-80
2023/03/14 01:41:13;;;;;;;15.10;14.70;;;11.30;99.90;;;;;;4918453;29;20948;-79
2023/03/14 01:43:41;;;;;;;14.77;14.47;;;11.20;99.90;;;;;;4920128;29;20940;-78
2023/03/14 01:46:41;;;;;;;15.00;14.60;;;11.10;99.90;;;;;;4918847;29;20453;-79
2023/03/14 01:49:20;;;;;;;14.97;14.57;;;11.10;99.90;;;;;;4911769;29;20504;-77
2023/03/14 01:51:53;;;;;;;15.93;15.43;;;11.00;99.90;;;;;;4921733;29;20583;-79
2023/03/14 01:54:25;;;;;;;14.70;14.40;;;11.10;99.90;;;;;;4925560;29;20463;-79
2023/03/14 01:56:58;;;;;;;14.70;14.40;;;11.00;99.90;;;;;;4920243;29;20451;-79
2023/03/14 01:59:28;;;;;;;15.23;14.70;;;11.00;99.90;;;;;;4920010;29;20672;-79
2023/03/14 02:01:57;;;;;;;14.97;14.57;;;11.00;1.00;;;;;;4917614;29;20486;-81
2023/03/14 02:04:30;;;;;;;15.20;14.80;;;11.00;1.00;;;;;;4921527;29;20461;-79
2023/03/14 02:07:03;;;;;;;15.40;14.93;;;11.00;1.00;;;;;;4919198;29;20460;-76
2023/03/14 02:09:32;;;;;;;15.13;14.53;;;11.10;1.00;;;;;;4921615;29;21342;-79
2023/03/14 02:12:01;;;;;;;15.30;14.90;;;11.10;1.00;;;;;;4921707;29;20480;-79
2023/03/14 02:14:33;;;;;;;15.77;15.37;;;11.10;99.90;;;;;;4917312;29;20451;-76
2023/03/14 02:17:02;;;;;;;15.30;14.80;;;11.20;99.90;;;;;;4916910;29;20454;-80
2023/03/14 02:19:48;;;;;;;15.20;14.77;;;11.10;1.00;;;;;;4918613;29;20460;-76
2023/03/14 02:22:17;;;;;;;14.40;14.10;;;11.10;1.00;;;;;;4919739;29;20484;-79
2023/03/14 02:24:54;;;;;;;14.53;14.23;;;11.00;1.00;;;;;;4916492;29;20462;-79
2023/03/14 02:27:24;;;;;;;14.60;14.30;;;11.00;1.00;;;;;;4915943;29;20513;-76
2023/03/14 02:29:55;;;;;;;14.70;14.40;;;11.00;1.00;;;;;;4919287;29;20464;-77
2023/03/14 02:32:24;;;;;;;14.90;14.50;;;11.00;1.00;;;;;;4917463;29;20518;-77
2023/03/14 02:34:57;;;;;;;14.50;14.20;;;10.90;1.00;;;;;;4918127;29;20560;-79
2023/03/14 02:37:32;;;;;;;14.80;14.30;;;11.00;99.90;;;;;;4917800;29;20496;-79
2023/03/14 02:40:00;;;;;;;14.70;14.40;;;11.00;99.90;;;;;;4900838;29;20473;-78
2023/03/14 02:42:30;;;;;;;14.80;14.40;;;11.10;99.90;;;;;;4912554;29;20484;-77
2023/03/14 02:45:22;;;;;;;14.50;14.20;;;11.00;99.90;;;;;;4917479;29;20466;-82
2023/03/14 02:47:55;;;;;;;14.60;14.30;;;11.00;99.90;;;;;;4916516;29;20475;-80
2023/03/14 02:50:27;;;;;;;14.90;14.40;;;10.90;99.90;;;;;;4913892;29;20907;-78
2023/03/14 02:52:55;;;;;;;14.30;14.00;;;11.00;99.90;;;;;;4918155;29;20475;-78
2023/03/14 02:55:25;;;;;;;14.70;14.30;;;11.10;99.90;;;;;;4914785;29;20469;-79
2023/03/14 02:57:54;;;;;;;14.60;14.20;;;11.10;1.00;;;;;;4915392;29;20460;-77
2023/03/14 03:00:23;;;;;;;14.40;14.10;;;10.90;1.00;;;;;;4919292;29;20461;-80
2023/03/14 03:02:51;;;;;;;14.90;14.50;;;10.90;1.00;;;;;;4918504;29;20592;-82
2023/03/14 03:05:20;;;;;;;14.30;14.00;;;10.90;99.90;;;;;;4921981;29;20543;-79
2023/03/14 03:07:48;;;;;;;14.30;13.90;;;11.00;99.90;;;;;;4923644;29;20995;-80
2023/03/14 03:10:16;;;;;;;14.47;14.07;;;10.90;99.90;;;;;;4920992;29;20476;-80
2023/03/14 03:12:44;;;;;;;14.43;14.03;;;10.90;1.00;;;;;;4921661;29;20458;-75
2023/03/14 03:15:14;;;;;;;14.20;13.80;;;10.80;99.90;;;;;;4918893;29;20515;-80
2023/03/14 03:17:42;;;;;;;14.73;14.33;;;10.90;99.90;;;;;;4918840;29;20873;-76
2023/03/14 03:20:12;;;;;;;15.10;14.47;;;10.80;99.90;;;;;;4915918;29;20460;-76
2023/03/14 03:22:40;;;;;;;14.33;13.90;;;10.80;94.40;;;;;;4920683;29;20516;-78
2023/03/14 03:25:10;;;;;;;14.90;14.50;;;10.80;99.90;;;;;;4914238;29;20467;-81
2023/03/14 03:27:39;;;;;;;14.63;14.33;;;10.80;99.90;;;;;;4919248;29;20480;-78
2023/03/14 03:30:09;;;;;;;14.80;14.40;;;10.90;99.90;;;;;;4916391;29;20531;-82
2023/03/14 03:32:38;;;;;;;14.80;14.40;;;10.80;99.90;;;;;;4919059;29;20443;-79
2023/03/14 03:35:07;;;;;;;14.93;14.40;;;10.80;99.90;;;;;;4920835;29;20450;-77
2023/03/14 03:37:36;;;;;;;14.10;13.80;;;10.90;99.90;;;;;;4915237;29;20449;-80
2023/03/14 03:40:06;;;;;;;14.90;14.40;;;10.90;1.00;;;;;;4909953;29;20470;-81
2023/03/14 03:42:34;;;;;;;15.07;14.47;;;10.80;1.00;;;;;;4916825;29;20478;-81
2023/03/14 03:45:03;;;;;;;14.70;14.20;;;10.90;99.90;;;;;;4914976;29;20851;-77
2023/03/14 03:47:32;;;;;;;14.43;14.13;;;10.80;1.00;;;;;;4911720;29;20467;-78
2023/03/14 03:50:02;;;;;;;14.10;13.70;;;10.90;1.00;;;;;;4917664;29;20468;-80
2023/03/14 03:52:30;;;;;;;14.43;14.00;;;10.90;1.00;;;;;;4919587;29;20946;-79
2023/03/14 03:54:58;;;;;;;14.70;14.00;;;10.90;1.00;;;;;;4917194;29;20517;-78
2023/03/14 03:57:26;;;;;;;14.60;14.20;;;10.90;1.00;;;;;;4918485;29;20465;-79
2023/03/14 03:59:54;;;;;;;14.50;14.00;;;10.90;99.90;;;;;;4920253;29;20505;-79
2023/03/14 04:02:22;;;;;;;14.23;13.83;;;10.80;99.90;;;;;;4924171;29;20493;-79
2023/03/14 04:04:51;;;;;;;14.70;14.20;;;10.80;99.90;;;;;;4922639;29;20466;-79
2023/03/14 04:07:20;;;;;;;14.20;13.70;;;10.70;99.90;;;;;;4920404;29;22225;-78
2023/03/14 04:09:48;;;;;;;14.00;13.60;;;10.70;99.90;;;;;;4922371;29;20576;-79
2023/03/14 04:12:16;;;;;;;14.60;14.20;;;10.70;99.90;;;;;;4919662;29;20509;-80
2023/03/14 04:14:46;;;;;;;14.20;13.73;;;10.70;99.90;;;;;;4921429;29;20522;-80
2023/03/14 04:17:14;;;;;;;14.70;14.00;;;10.60;99.90;;;;;;4921927;29;20464;-79
2023/03/14 04:19:42;;;;;;;14.50;14.10;;;10.70;99.90;;;;;;4921949;29;20484;-76
2023/03/14 04:22:10;;;;;;;14.67;14.03;;;10.70;99.90;;;;;;4917666;29;20489;-80
2023/03/14 04:24:40;;;;;;;14.20;13.80;;;10.70;99.90;;;;;;4921385;29;20445;-78
2023/03/14 04:27:08;;;;;;;14.50;14.00;;;10.60;99.90;;;;;;4925805;29;20535;-81
2023/03/14 04:29:36;;;;;;;14.37;13.90;;;10.60;99.90;;;;;;4920723;29;20536;-79
2023/03/14 04:32:04;;;;;;;14.60;14.00;;;10.70;80.20;;;;;;4927715;29;21012;-78
2023/03/14 04:34:32;;;;;;;14.70;14.17;;;10.60;99.90;;;;;;4920599;29;20987;-79
2023/03/14 04:37:00;;;;;;;14.87;14.00;;;10.60;65.40;;;;;;4926601;29;20458;-78
2023/03/14 04:39:28;;;;;;;14.07;13.67;;;10.60;89.30;;;;;;4924295;29;20555;-77
2023/03/14 04:41:58;;;;;;;14.47;13.97;;;10.60;1.00;;;;;;4927110;29;20505;-79
2023/03/14 04:44:26;;;;;;;14.20;13.70;;;10.60;13.60;;;;;;4926264;29;20493;-80
2023/03/14 04:46:54;;;;;;;14.43;13.80;;;10.60;1.00;;;;;;4926956;29;20465;-80
2023/03/14 04:49:23;;;;;;;15.13;14.37;;;10.60;39.50;;;;;;4924375;29;20459;-80
2023/03/14 04:51:51;;;;;;;14.03;13.73;;;10.60;36.30;;;;;;4923208;29;20481;-79
2023/03/14 04:54:19;;;;;;;14.27;13.87;;;10.50;99.90;;;;;;4915848;29;21026;-78
2023/03/14 04:56:47;;;;;;;14.10;13.70;;;10.50;99.90;;;;;;4922942;29;20472;-79
2023/03/14 04:59:17;;;;;;;14.10;13.70;;;10.50;99.90;;;;;;4923434;29;20479;-79
2023/03/14 05:01:45;;;;;;;14.00;13.60;;;10.30;99.90;;;;;;4923482;29;20491;-78
2023/03/14 05:04:13;;;;;;;13.90;13.50;;;10.40;99.90;;;;;;4926895;29;20493;-80
2023/03/14 05:06:42;;;;;;;13.93;13.43;;;10.40;99.90;;;;;;4923489;29;20463;-80
2023/03/14 05:09:10;;;;;;;14.27;13.77;;;10.50;99.90;;;;;;4918760;29;21001;-80
2023/03/14 05:11:38;;;;;;;13.80;13.40;;;10.40;99.90;;;;;;4923192;29;20610;-79
2023/03/14 05:14:06;;;;;;;14.07;13.67;;;10.40;99.90;;;;;;4925428;29;20464;-81
2023/03/14 05:16:35;;;;;;;14.27;13.80;;;10.40;99.90;;;;;;4898938;29;20466;-80
2023/03/14 05:19:04;;;;;;;14.07;13.73;;;10.40;1.00;;;;;;4919726;29;20457;-80
2023/03/14 05:21:32;;;;;;;14.10;13.50;;;10.40;58.30;;;;;;4921875;29;20601;-77
2023/03/14 05:24:00;;;;;;;14.00;13.43;;;10.50;38.10;;;;;;4920782;29;20575;-78
2023/03/14 05:26:28;;;;;;;14.20;13.87;;;10.50;1.00;;;;;;4916619;29;20526;-77
2023/03/14 05:28:56;;;;;;;14.20;13.70;;;10.50;1.00;;;;;;4900868;29;20462;-75
2023/03/14 05:31:24;;;;;;;14.97;14.27;;;10.40;1.00;;;;;;4920050;29;20530;-81
2023/03/14 05:33:54;;;;;;;13.70;13.33;;;10.40;61.70;;;;;;4921038;29;21136;-79
2023/03/14 05:36:22;;;;;;;14.53;14.10;;;10.40;31.20;;;;;;4913907;29;20460;-78
2023/03/14 05:38:50;;;;;;;14.83;14.13;;;10.40;19.90;;;;;;4914891;29;21771;-79
2023/03/14 05:41:18;;;;;;;14.20;13.70;;;10.40;1.00;;;;;;4917850;29;20990;-79
2023/03/14 05:43:46;;;;;;;14.73;14.20;;;10.50;1.00;;;;;;4914115;29;20508;-78
2023/03/14 05:46:14;;;;;;;14.20;13.80;;;10.50;1.00;;;;;;4915862;29;20460;-79
2023/03/14 05:48:43;;;;;;;14.17;13.67;;;10.50;1.00;;;;;;4911970;29;20842;-82
2023/03/14 05:51:12;;;;;;;14.07;13.60;;;10.50;1.00;;;;;;4919985;29;21010;-80
2023/03/14 05:53:40;;;;;;;14.27;13.87;;;10.50;1.00;;;;;;4918835;29;20447;-80
2023/03/14 05:56:09;;;;;;;14.00;13.70;;;10.60;1.00;;;;;;4901638;29;20560;-79
2023/03/14 05:58:38;;;;;;;13.83;13.53;;;10.50;1.00;;;;;;4919217;29;20516;-81
2023/03/14 06:01:07;;;;;;;14.50;14.10;;;10.60;1.00;;;;;;4902400;29;20491;-79
2023/03/14 06:03:35;;;;;;;14.23;13.87;;;10.70;99.90;;;;;;4923253;29;20519;-80
2023/03/14 06:06:04;;;;;;;14.07;13.67;;;10.60;99.90;;;;;;4915819;29;20478;-80
2023/03/14 06:08:34;;;;;;;14.20;13.80;;;10.60;99.90;;;;;;4907659;29;20490;-77
2023/03/14 06:11:04;;;;;;;13.80;13.50;;;10.60;99.90;;;;;;4911610;29;20481;-78
2023/03/14 06:13:32;;;;;;;14.00;13.70;;;10.60;99.90;;;;;;4916887;29;20486;-78
2023/03/14 06:16:00;;;;;;;15.40;14.40;;;10.70;99.90;;;;;;4918621;29;20457;-81
2023/03/14 06:18:28;;;;;;;14.30;13.80;;;10.70;99.90;;;;;;4918296;29;20458;-80
2023/03/14 06:20:57;;;;;;;15.03;14.43;;;10.70;99.90;;;;;;4914037;29;21306;-79
2023/03/14 06:23:26;;;;;;;14.63;14.30;;;10.70;99.90;;;;;;4915419;29;20477;-81
2023/03/14 06:25:55;;;;;;;14.40;13.97;;;10.80;99.90;;;;;;4906242;29;23082;-76
2023/03/14 06:28:23;;;;;;;14.60;14.10;;;10.80;99.90;;;;;;4916263;29;20497;-80
2023/03/14 06:30:53;;;;;;;14.10;13.80;;;10.80;99.90;;;;;;4913274;29;21008;-77
2023/03/14 06:33:21;;;;;;;14.20;13.80;;;10.70;99.90;;;;;;4914389;29;20454;-78
2023/03/14 06:35:49;;;;;;;13.73;13.43;;;10.70;99.90;;;;;;4917756;29;20499;-78
2023/03/14 06:38:17;;;;;;;14.57;14.27;;;10.70;99.90;;;;;;4903274;29;20804;-80
2023/03/14 06:40:45;;;;;;;14.27;13.70;;;10.70;99.90;;;;;;4917927;29;21041;-78
2023/03/14 06:43:15;;;;;;;14.27;13.80;;;10.70;99.90;;;;;;4901521;29;20493;-78
2023/03/14 06:45:43;;;;;;;13.73;13.43;;;10.70;99.90;;;;;;4914916;29;20489;-81
2023/03/14 06:48:11;;;;;;;14.30;14.00;;;10.70;99.90;;;;;;4918923;29;20462;-80
2023/03/14 06:50:39;;;;;;;14.30;13.90;;;10.60;99.90;;;;;;4913788;29;21045;-81
2023/03/14 06:53:08;;;;;;;14.00;13.70;;;10.80;99.90;;;;;;4911416;29;20568;-80
2023/03/14 06:55:36;;;;;;;14.17;13.87;;;10.90;99.90;;;;;;4918479;29;20754;-80
2023/03/14 06:58:04;;;;;;;14.63;13.93;;;10.90;86.50;;;;;;4917203;29;20545;-79
2023/03/14 07:00:34;;;;;;;13.80;13.50;;;10.80;99.90;;;;;;4919518;29;20825;-81
2023/03/14 07:03:02;;;;;;;14.50;14.10;;;10.90;99.90;;;;;;4917363;29;20498;-79
2023/03/14 07:05:30;;;;;;;14.43;14.13;;;10.90;99.90;;;;;;4908994;29;20476;-79
2023/03/14 07:07:58;;;;;;;15.00;14.40;;;10.90;99.90;;;;;;4919979;29;20499;-79
2023/03/14 07:10:27;;;;;;;14.03;13.73;;;11.00;99.90;;;;;;4917998;29;20457;-81
2023/03/14 07:12:55;;;;;;;14.23;13.83;;;11.10;35.60;;;;;;4920830;29;20520;-81
2023/03/14 07:15:23;;;;;;;14.27;13.67;;;11.10;93.80;;;;;;4920014;29;20451;-79
2023/03/14 07:17:52;;;;;;;13.80;13.50;;;11.10;99.90;;;;;;4914453;29;20541;-79
2023/03/14 07:20:20;;;;;;;14.00;13.70;;;11.00;99.90;;;;;;4916220;29;20465;-79
2023/03/14 07:22:49;;;;;;;14.50;14.00;;;11.10;99.90;;;;;;4911940;29;20471;-79
2023/03/14 07:25:18;;;;;;;14.20;13.90;;;11.10;82.40;;;;;;4913649;29;20993;-80
2023/03/14 07:27:47;;;;;;;14.70;14.30;;;11.10;27.80;;;;;;4914067;29;20454;-76
2023/03/14 07:30:15;;;;;;;14.67;14.30;;;11.20;15.50;;;;;;4912444;29;20532;-77
2023/03/14 07:32:44;;;;;;;14.20;13.90;;;11.40;1.00;;;;;;4918253;29;20487;-78
2023/03/14 07:35:13;;;;;;;14.77;14.37;;;11.50;1.00;;;;;;4917506;29;20983;-80
2023/03/14 07:37:42;;;;;;;15.13;14.37;;;11.70;1.00;;;;;;4919751;29;20469;-77
2023/03/14 07:40:14;;;;;;;14.50;14.20;;;11.80;1.00;;;;;;4917181;29;21062;-80
2023/03/14 07:42:43;;;;;;;14.10;13.80;;;11.90;1.00;;;;;;4920744;29;20481;-80
2023/03/14 07:45:12;;;;;;;15.00;14.60;;;12.00;1.00;;;;;;4918910;29;20488;-77
2023/03/14 07:47:40;;;;;;;14.10;13.80;;;12.10;1.00;;;;;;4918483;29;20457;-78
2023/03/14 07:50:10;;;;;;;14.57;14.20;;;12.10;1.00;;;;;;4920350;29;20916;-79
2023/03/14 07:52:39;;;;;;;14.77;14.47;;;12.20;1.00;;;;;;4919146;29;20486;-80
2023/03/14 07:55:08;;;;;;;14.83;14.43;;;12.40;1.00;;;;;;4920338;29;20462;-77
2023/03/14 07:57:36;;;;;;;14.70;14.40;;;12.60;1.00;;;;;;4921459;29;20970;-78
2023/03/14 08:00:06;;;;;;;15.10;14.70;;;12.80;1.00;;;;;;4916039;29;20512;-78
2023/03/14 08:02:35;;;;;;;14.90;14.60;;;13.20;1.00;;;;;;4921483;29;20474;-78
2023/03/14 08:05:04;;;;;;;15.10;14.73;;;13.50;99.90;;;;;;4923068;29;20489;-78
2023/03/14 08:07:32;;;;;;;14.57;14.17;;;13.60;99.90;;;;;;4918191;29;20533;-78
2023/03/14 08:10:02;;;;;;;14.60;14.30;;;13.70;99.90;;;;;;4919661;29;20529;-78
2023/03/14 08:12:30;;;;;;;15.30;14.90;;;13.80;99.90;;;;;;4920297;29;21074;-77
2023/03/14 08:14:59;;;;;;;14.73;14.33;;;13.60;99.90;;;;;;4919340;29;21064;-78
2023/03/14 08:17:27;;;;;;;14.60;14.30;;;13.40;99.90;;;;;;4922928;29;21067;-79
2023/03/14 08:19:56;;;;;;;15.20;14.80;;;13.30;99.90;;;;;;4918416;29;20465;-78
2023/03/14 08:22:24;;;;;;;14.90;14.60;;;13.30;99.90;;;;;;4922041;29;20486;-79
2023/03/14 08:24:52;;;;;;;15.87;15.47;;;13.50;99.90;;;;;;4918115;29;20551;-77
2023/03/14 08:27:21;;;;;;;15.20;14.90;;;13.80;99.90;;;;;;4918761;29;20467;-79
2023/03/14 08:29:49;;;;;;;15.33;14.73;;;14.10;99.90;;;;;;4919912;29;20467;-80
2023/03/14 08:32:19;;;;;;;14.90;14.50;;;14.10;99.90;;;;;;4912215;29;20503;-81
2023/03/14 08:34:48;;;;;;;14.80;14.40;;;14.00;99.90;;;;;;4919562;29;20531;-78
2023/03/14 08:37:16;;;;;;;14.10;13.80;;;13.60;99.90;;;;;;4922384;29;20468;-79
2023/03/14 08:39:54;;;;;;;14.50;14.17;;;13.50;99.90;;;;;;4917686;29;20471;-78
2023/03/14 08:42:24;;;;;;;14.80;14.50;;;13.30;99.90;;;;;;4919164;29;20979;-78
2023/03/14 08:44:52;;;;;;;14.40;14.10;;;13.00;99.90;;;;;;4922171;29;20474;-79
2023/03/14 08:47:20;;;;;;;14.70;14.30;;;12.90;99.90;;;;;;4922366;29;20464;-79
2023/03/14 08:49:49;;;;;;;15.03;14.63;;;12.90;99.90;;;;;;4918661;29;20534;-78
2023/03/14 08:52:17;;;;;;;14.77;14.40;;;12.90;99.90;;;;;;4919358;29;20483;-77
2023/03/14 08:54:45;;;;;;;15.07;14.70;;;13.00;99.90;;;;;;4919976;29;20466;-79
2023/03/14 08:57:13;;;;;;;15.30;14.90;;;12.80;99.90;;;;;;4921642;29;20480;-77
2023/03/14 08:59:43;;;;;;;15.03;14.60;;;12.80;99.90;;;;;;4919069;29;20518;-78
2023/03/14 09:02:12;;;;;;;14.60;14.30;;;12.70;99.90;;;;;;4920882;29;20466;-78
2023/03/14 09:04:40;;;;;;;14.60;14.30;;;12.70;99.90;;;;;;4920219;29;20466;-79
2023/03/14 09:07:09;;;;;;;15.20;14.70;;;12.60;99.90;;;;;;4923312;29;20464;-77
2023/03/14 09:09:37;;;;;;;14.60;14.30;;;12.40;1.00;;;;;;4919559;29;20470;-80
2023/03/14 09:12:06;;;;;;;14.30;14.00;;;12.50;1.00;;;;;;4924661;29;20465;-80
2023/03/14 09:14:34;;;;;;;14.70;14.40;;;12.40;1.00;;;;;;4920135;29;20468;-78
2023/03/14 09:17:05;;;;;;;15.07;14.60;;;12.20;1.00;;;;;;4920746;29;20457;-79
2023/03/14 09:19:33;;;;;;;14.90;14.60;;;12.20;1.00;;;;;;4917441;29;20464;-79
2023/03/14 09:22:01;;;;;;;14.70;14.40;;;12.20;1.00;;;;;;4917251;29;22113;-79
2023/03/14 09:24:29;;;;;;;14.47;14.17;;;12.20;1.00;;;;;;4916070;29;20505;-80
2023/03/14 09:26:57;;;;;;;14.40;14.07;;;12.30;99.90;;;;;;4908134;29;20496;-79
2023/03/14 09:29:26;;;;;;;15.37;14.97;;;12.20;99.90;;;;;;4916303;29;20526;-78
2023/03/14 09:31:54;;;;;;;14.83;14.43;;;12.30;99.90;;;;;;4918621;29;20543;-79
2023/03/14 09:34:23;;;;;;;14.80;14.50;;;12.40;99.90;;;;;;4918539;29;20544;-79
2023/03/14 09:36:51;;;;;;;14.90;14.50;;;12.40;99.90;;;;;;4921080;29;20453;-79
2023/03/14 09:39:19;;;;;;;15.27;14.83;;;12.30;99.90;;;;;;4915527;29;20458;-77
2023/03/14 09:41:50;;;;;;;14.60;14.30;;;12.40;99.90;;;;;;4916567;29;20501;-79
2023/03/14 09:44:25;;;;;;;14.40;14.10;;;12.20;99.90;;;;;;4921317;29;20555;-78
2023/03/14 09:46:57;;;;;;;15.30;14.90;;;12.30;99.90;;;;;;4917212;29;20831;-80
2023/03/14 09:49:29;;;;;;;14.17;13.87;;;12.20;99.90;;;;;;4916605;29;20460;-78
2023/03/14 09:52:00;;;;;;;14.80;14.50;;;12.20;99.90;;;;;;4921222;29;20509;-79
2023/03/14 09:54:38;;;;;;;14.90;14.50;;;12.30;99.90;;;;;;4923382;29;20473;-79
2023/03/14 09:57:11;;;;;;;14.80;14.50;;;12.30;99.90;;;;;;4921679;29;20457;-80
2023/03/14 09:59:41;;;;;;;15.10;14.70;;;12.40;99.90;;;;;;4920550;29;20500;-79
2023/03/14 10:02:16;;;;;;;14.93;14.63;;;12.80;99.90;;;;;;4919430;29;20476;-79
2023/03/14 10:04:47;;;;;;;15.60;15.20;;;13.50;99.90;;;;;;4920142;29;20551;-78
2023/03/14 10:07:19;;;;;;;15.70;15.40;;;14.20;99.90;;;;;;4917347;29;20548;-81
2023/03/14 10:09:49;;;;;;;16.20;15.80;;;15.80;99.90;;;;;;4921472;29;20469;-79
2023/03/14 10:12:18;;;;;;;15.27;14.97;;;16.10;99.90;;;;;;4919371;29;20571;-80
2023/03/14 10:14:49;;;;;;;15.10;14.80;;;16.40;99.90;;;;;;4921178;29;20460;-77
2023/03/14 10:17:19;;;;;;;15.00;14.70;;;16.30;99.90;;;;;;4921037;29;20480;-78
2023/03/14 10:19:57;;;;;;;17.07;16.20;;;16.00;99.90;;;;;;4919490;29;20458;-77
2023/03/14 10:22:28;;;;;;;14.60;14.30;;;15.20;99.90;;;;;;4918834;29;21032;-79
2023/03/14 10:24:59;;;;;;;14.47;14.17;;;14.50;99.90;;;;;;4916234;29;20469;-77
2023/03/14 10:27:30;;;;;;;14.60;14.30;;;14.20;99.90;;;;;;4920642;29;20488;-77
2023/03/14 10:30:00;;;;;;;14.80;14.40;;;14.00;99.90;;;;;;4920234;29;20455;-78
2023/03/14 10:32:33;;;;;;;14.30;14.00;;;13.80;99.90;;;;;;4921406;29;20487;-79
2023/03/14 10:35:09;;;;;;;13.73;13.53;;;13.90;99.90;;;;;;4921012;29;20501;-78
2023/03/14 10:37:50;;;;;;;13.90;13.70;;;13.50;99.90;;;;;;4921137;29;20491;-78
2023/03/14 10:40:20;;;;;;;14.53;14.23;;;13.30;99.90;;;;;;4920037;29;20477;-79
2023/03/14 10:42:51;;;;;;;13.80;13.50;;;13.20;99.90;;;;;;4919708;29;20466;-79
2023/03/14 10:45:32;;;;;;;13.53;13.23;;;13.20;99.90;;;;;;4919752;29;20544;-77
2023/03/14 10:48:07;;;;;;;13.60;13.30;;;13.10;99.90;;;;;;4920538;29;20496;-79
2023/03/14 10:50:38;;;;;;;13.60;13.30;;;13.00;99.90;;;;;;4920302;29;20454;-78
2023/03/14 10:53:09;;;;;;;13.70;13.40;;;13.10;99.90;;;;;;4921734;29;20464;-78
2023/03/14 10:55:45;;;;;;;13.50;13.20;;;13.10;99.90;;;;;;4921785;29;20469;-80
2023/03/14 10:58:25;;;;;;;12.90;12.70;;;13.10;99.90;;;;;;4920208;29;20454;-76
2023/03/14 11:01:03;;;;;;;13.40;12.90;;;13.00;99.90;;;;;;4918987;29;20488;-76
2023/03/14 11:03:34;;;;;;;13.50;13.30;;;12.90;99.90;;;;;;4921095;29;20995;-79
2023/03/14 11:06:10;;;;;;;13.90;13.60;;;12.80;99.90;;;;;;4920471;29;21006;-77
2023/03/14 11:08:47;;;;;;;13.43;13.23;;;12.80;99.90;;;;;;4920683;29;20454;-80
2023/03/14 11:11:21;;;;;;;13.43;13.23;;;12.80;99.90;;;;;;4919567;29;20484;-79
2023/03/14 11:14:01;;;;;;;13.40;13.20;;;12.80;99.90;;;;;;4924367;29;20983;-77
2023/03/14 11:16:38;;;;;;;13.83;13.50;;;12.70;99.90;;;;;;4917828;29;20454;-76
2023/03/14 11:19:29;;;;;;;13.53;13.33;;;12.80;99.90;;;;;;4922868;29;21098;-79
2023/03/14 11:22:04;;;;;;;13.30;13.10;;;12.80;99.90;;;;;;4913787;29;21230;-79
2023/03/14 11:24:46;;;;;;;13.60;13.30;;;12.80;99.90;;;;;;4919291;29;20468;-79
2023/03/14 11:27:19;;;;;;;13.63;13.33;;;12.60;99.90;;;;;;4902788;29;20918;-80
2023/03/14 11:29:56;;;;;;;13.60;13.30;;;12.60;1.00;;;;;;4920930;29;20513;-79
2023/03/14 11:32:38;;;;;;;13.70;13.40;;;12.70;1.00;;;;;;4921488;29;20482;-78
2023/03/14 11:35:21;;;;;;;13.97;13.67;;;12.60;1.00;;;;;;4917289;29;20470;-78
2023/03/14 11:37:55;;;;;;;14.30;14.00;;;12.60;1.00;;;;;;4921191;29;20497;-78
2023/03/14 11:40:27;;;;;;;14.27;13.97;;;12.50;99.90;;;;;;4919874;29;20477;-76
2023/03/14 11:43:01;;;;;;;15.00;14.60;;;12.50;99.90;;;;;;4919681;29;20455;-78
2023/03/14 11:45:35;;;;;;;14.67;14.37;;;12.60;99.90;;;;;;4915836;29;20461;-79
2023/03/14 11:48:18;;;;;;;14.50;13.80;;;12.60;94.40;;;;;;4917050;29;20856;-79
2023/03/14 11:50:50;;;;;;;13.80;13.50;;;12.70;99.90;;;;;;4919169;29;20632;-79
2023/03/14 11:53:26;;;;;;;13.53;13.33;;;12.70;99.90;;;;;;4920934;29;20469;-79
2023/03/14 11:55:54;;;;;;;13.40;13.20;;;12.80;99.90;;;;;;4921462;29;20473;-78
2023/03/14 11:58:28;;;;;;;13.30;13.00;;;12.80;99.90;;;;;;4918150;29;20796;-78
2023/03/14 12:00:58;;;;;;;13.37;13.17;;;12.70;99.90;;;;;;4918172;29;20486;-78
2023/03/14 12:03:35;;;;;;;13.50;13.20;;;12.70;99.90;;;;;;4919170;29;20545;-75
2023/03/14 12:06:14;;;;;;;13.20;13.00;;;12.60;99.90;;;;;;4917987;29;20461;-79
2023/03/14 12:08:50;;;;;;;13.77;13.40;;;12.60;99.90;;;;;;4908985;29;20520;-78
2023/03/14 12:11:23;;;;;;;13.80;13.50;;;12.60;99.90;;;;;;4897634;29;20484;-79
2023/03/14 12:13:53;;;;;;;13.80;13.50;;;12.50;99.90;;;;;;4914355;29;20488;-80
2023/03/14 12:16:34;;;;;;;14.00;13.70;;;12.40;51.60;;;;;;4917436;29;20506;-77
2023/03/14 12:19:32;;;;;;;14.90;14.53;;;12.60;99.90;;;;;;4915756;29;21192;-78
2023/03/14 12:22:25;;;;;;;14.07;13.77;;;13.00;99.90;;;;;;4916535;29;21043;-77
2023/03/14 12:25:01;;;;;;;13.77;13.43;;;13.20;1.00;;;;;;4916796;29;20614;-79
2023/03/14 12:28:00;;;;;;;13.33;13.03;;;13.20;99.90;;;;;;4919091;29;20484;-83
2023/03/14 12:30:30;;;;;;;12.87;12.67;;;13.30;99.90;;;;;;4915702;29;20463;-81
2023/03/14 12:33:33;;;;;;;13.47;13.17;;;13.30;99.90;;;;;;4923033;29;20470;-79
2023/03/14 12:36:12;;;;;;;14.17;13.57;;;13.10;99.90;;;;;;4918479;29;20838;-79
2023/03/14 12:38:59;;;;;;;13.03;12.83;;;13.10;99.90;;;;;;4921076;29;20821;-79
2023/03/14 12:41:36;;;;;;;12.60;12.40;;;13.10;99.90;;;;;;4918059;29;20499;-80
2023/03/14 12:44:46;;;;;;;12.83;12.53;;;13.20;99.90;;;;;;4903027;29;20573;-79
2023/03/14 12:47:43;;;;;;;12.97;12.67;;;13.20;99.90;;;;;;4916534;29;20485;-80
2023/03/14 12:50:19;;;;;;;12.77;12.57;;;13.20;99.90;;;;;;4916315;29;20976;-77